sensor_id;sensor_type;location;lat;lon;timestamp;P1;durP1;ratioP1;P2;durP2;ratioP2
70715;SDS011;59053;50.832;12.882;2022-09-09T00:04:40;4.22;;;2.10;;
70715;SDS011;59053;50.832;12.882;2022-09-09T00:15:11;3.92;;;2.08;;
70715;SDS011;59053;50.832;12.882;2022-09-09T00:17:39;4.65;;;1.80;;
70715;SDS011;59053;50.832;12.882;2022-09-09T00:20:16;7.37;;;2.13;;
70715;SDS011;59053;50.832;12.882;2022-09-09T00:23:32;3.47;;;1.92;;
70715;SDS011;59053;50.832;12.882;2022-09-09T00:25:42;3.25;;;1.80;;
70715;SDS011;59053;50.832;12.882;2022-09-09T00:28:18;8.85;;;2.00;;
70715;SDS011;59053;50.832;12.882;2022-09-09T00:30:46;6.38;;;1.85;;
70715;SDS011;59053;50.832;12.882;2022-09-09T00:33:15;3.50;;;1.90;;
70715;SDS011;59053;50.832;12.882;2022-09-09T00:38:16;4.25;;;1.90;;
70715;SDS011;59053;50.832;12.882;2022-09-09T00:43:33;3.53;;;1.80;;
70715;SDS011;59053;50.832;12.882;2022-09-09T00:46:14;3.03;;;1.70;;
70715;SDS011;59053;50.832;12.882;2022-09-09T00:48:54;6.65;;;2.00;;
70715;SDS011;59053;50.832;12.882;2022-09-09T01:11:24;4.40;;;2.05;;
70715;SDS011;59053;50.832;12.882;2022-09-09T01:13:58;6.15;;;2.60;;
70715;SDS011;59053;50.832;12.882;2022-09-09T01:16:33;6.07;;;2.90;;
70715;SDS011;59053;50.832;12.882;2022-09-09T01:18:59;12.57;;;2.75;;
70715;SDS011;59053;50.832;12.882;2022-09-09T01:26:35;3.83;;;2.25;;
70715;SDS011;59053;50.832;12.882;2022-09-09T01:29:08;4.93;;;2.30;;
70715;SDS011;59053;50.832;12.882;2022-09-09T01:31:41;7.05;;;2.20;;
70715;SDS011;59053;50.832;12.882;2022-09-09T01:34:17;5.05;;;2.40;;
70715;SDS011;59053;50.832;12.882;2022-09-09T01:36:53;4.40;;;2.55;;
70715;SDS011;59053;50.832;12.882;2022-09-09T01:39:29;7.18;;;2.70;;
70715;SDS011;59053;50.832;12.882;2022-09-09T01:42:00;4.83;;;2.50;;
70715;SDS011;59053;50.832;12.882;2022-09-09T01:44:27;4.78;;;2.70;;
70715;SDS011;59053;50.832;12.882;2022-09-09T01:46:53;5.20;;;2.78;;
70715;SDS011;59053;50.832;12.882;2022-09-09T01:49:20;6.50;;;2.42;;
70715;SDS011;59053;50.832;12.882;2022-09-09T01:51:49;4.97;;;2.60;;
70715;SDS011;59053;50.832;12.882;2022-09-09T01:54:17;4.37;;;2.37;;
70715;SDS011;59053;50.832;12.882;2022-09-09T02:04:41;5.55;;;2.78;;
70715;SDS011;59053;50.832;12.882;2022-09-09T02:07:17;7.00;;;2.90;;
70715;SDS011;59053;50.832;12.882;2022-09-09T02:09:50;7.35;;;2.70;;
70715;SDS011;59053;50.832;12.882;2022-09-09T02:12:20;4.82;;;2.58;;
70715;SDS011;59053;50.832;12.882;2022-09-09T02:14:55;5.25;;;2.67;;
70715;SDS011;59053;50.832;12.882;2022-09-09T02:17:25;4.53;;;2.50;;
70715;SDS011;59053;50.832;12.882;2022-09-09T02:20:05;7.77;;;2.73;;
70715;SDS011;59053;50.832;12.882;2022-09-09T02:22:55;6.03;;;2.60;;
70715;SDS011;59053;50.832;12.882;2022-09-09T02:25:23;5.57;;;2.20;;
70715;SDS011;59053;50.832;12.882;2022-09-09T02:35:00;6.33;;;2.43;;
70715;SDS011;59053;50.832;12.882;2022-09-09T02:37:31;7.80;;;2.40;;
70715;SDS011;59053;50.832;12.882;2022-09-09T02:40:01;9.35;;;2.60;;
70715;SDS011;59053;50.832;12.882;2022-09-09T02:42:28;8.15;;;2.92;;
70715;SDS011;59053;50.832;12.882;2022-09-09T02:44:56;8.57;;;2.50;;
70715;SDS011;59053;50.832;12.882;2022-09-09T02:58:06;6.38;;;2.25;;
70715;SDS011;59053;50.832;12.882;2022-09-09T03:00:35;7.07;;;2.35;;
70715;SDS011;59053;50.832;12.882;2022-09-09T03:03:04;4.18;;;2.30;;
70715;SDS011;59053;50.832;12.882;2022-09-09T03:05:32;4.72;;;2.20;;
70715;SDS011;59053;50.832;12.882;2022-09-09T03:07:58;5.33;;;2.17;;
70715;SDS011;59053;50.832;12.882;2022-09-09T03:10:24;4.57;;;2.55;;
70715;SDS011;59053;50.832;12.882;2022-09-09T03:12:49;4.67;;;2.43;;
70715;SDS011;59053;50.832;12.882;2022-09-09T03:15:16;5.30;;;2.50;;
70715;SDS011;59053;50.832;12.882;2022-09-09T03:17:42;4.57;;;2.45;;
70715;SDS011;59053;50.832;12.882;2022-09-09T03:20:08;4.40;;;2.53;;
70715;SDS011;59053;50.832;12.882;2022-09-09T03:22:35;5.50;;;2.53;;
70715;SDS011;59053;50.832;12.882;2022-09-09T03:25:01;6.35;;;2.90;;
70715;SDS011;59053;50.832;12.882;2022-09-09T03:27:28;6.03;;;2.70;;
70715;SDS011;59053;50.832;12.882;2022-09-09T03:29:54;6.70;;;2.90;;
70715;SDS011;59053;50.832;12.882;2022-09-09T03:32:22;7.15;;;3.10;;
70715;SDS011;59053;50.832;12.882;2022-09-09T03:34:51;6.28;;;2.45;;
70715;SDS011;59053;50.832;12.882;2022-09-09T03:37:17;7.43;;;2.50;;
70715;SDS011;59053;50.832;12.882;2022-09-09T03:39:44;4.97;;;2.45;;
70715;SDS011;59053;50.832;12.882;2022-09-09T03:42:12;7.47;;;2.40;;
70715;SDS011;59053;50.832;12.882;2022-09-09T03:44:39;5.13;;;2.53;;
70715;SDS011;59053;50.832;12.882;2022-09-09T03:47:07;4.85;;;2.42;;
70715;SDS011;59053;50.832;12.882;2022-09-09T03:49:33;5.63;;;2.55;;
70715;SDS011;59053;50.832;12.882;2022-09-09T03:51:59;4.55;;;2.53;;
70715;SDS011;59053;50.832;12.882;2022-09-09T03:54:26;5.23;;;2.63;;
70715;SDS011;59053;50.832;12.882;2022-09-09T03:56:52;7.45;;;2.70;;
70715;SDS011;59053;50.832;12.882;2022-09-09T03:59:18;6.18;;;2.50;;
70715;SDS011;59053;50.832;12.882;2022-09-09T04:04:26;4.78;;;2.33;;
70715;SDS011;59053;50.832;12.882;2022-09-09T04:06:52;5.47;;;2.42;;
70715;SDS011;59053;50.832;12.882;2022-09-09T04:09:18;7.30;;;2.90;;
70715;SDS011;59053;50.832;12.882;2022-09-09T04:11:43;7.75;;;3.10;;
70715;SDS011;59053;50.832;12.882;2022-09-09T04:17:56;6.95;;;3.17;;
70715;SDS011;59053;50.832;12.882;2022-09-09T04:20:25;6.57;;;2.90;;
70715;SDS011;59053;50.832;12.882;2022-09-09T04:22:57;6.60;;;2.97;;
70715;SDS011;59053;50.832;12.882;2022-09-09T04:25:22;6.22;;;3.08;;
70715;SDS011;59053;50.832;12.882;2022-09-09T04:27:53;7.53;;;3.30;;
70715;SDS011;59053;50.832;12.882;2022-09-09T04:30:26;8.98;;;3.40;;
70715;SDS011;59053;50.832;12.882;2022-09-09T04:32:52;7.15;;;3.17;;
70715;SDS011;59053;50.832;12.882;2022-09-09T04:35:18;8.07;;;3.57;;
70715;SDS011;59053;50.832;12.882;2022-09-09T04:40:42;7.85;;;2.97;;
70715;SDS011;59053;50.832;12.882;2022-09-09T04:43:09;8.15;;;3.10;;
70715;SDS011;59053;50.832;12.882;2022-09-09T04:51:49;9.90;;;2.65;;
70715;SDS011;59053;50.832;12.882;2022-09-09T04:54:16;7.22;;;3.05;;
70715;SDS011;59053;50.832;12.882;2022-09-09T04:56:43;6.93;;;3.08;;
70715;SDS011;59053;50.832;12.882;2022-09-09T04:59:10;8.05;;;3.47;;
70715;SDS011;59053;50.832;12.882;2022-09-09T05:01:41;8.17;;;4.10;;
70715;SDS011;59053;50.832;12.882;2022-09-09T05:04:07;8.80;;;4.00;;
70715;SDS011;59053;50.832;12.882;2022-09-09T05:06:33;7.40;;;3.65;;
70715;SDS011;59053;50.832;12.882;2022-09-09T05:13:07;8.33;;;3.57;;
70715;SDS011;59053;50.832;12.882;2022-09-09T05:18:39;6.70;;;3.10;;
70715;SDS011;59053;50.832;12.882;2022-09-09T05:21:20;7.20;;;3.05;;
70715;SDS011;59053;50.832;12.882;2022-09-09T05:23:50;6.07;;;3.00;;
70715;SDS011;59053;50.832;12.882;2022-09-09T05:26:24;10.00;;;3.13;;
70715;SDS011;59053;50.832;12.882;2022-09-09T05:28:51;10.38;;;3.22;;
70715;SDS011;59053;50.832;12.882;2022-09-09T05:31:18;8.38;;;2.88;;
70715;SDS011;59053;50.832;12.882;2022-09-09T05:33:47;10.80;;;3.40;;
70715;SDS011;59053;50.832;12.882;2022-09-09T05:36:18;6.50;;;3.17;;
70715;SDS011;59053;50.832;12.882;2022-09-09T05:38:47;8.38;;;3.20;;
70715;SDS011;59053;50.832;12.882;2022-09-09T05:41:13;8.68;;;3.28;;
70715;SDS011;59053;50.832;12.882;2022-09-09T05:43:43;7.85;;;3.63;;
70715;SDS011;59053;50.832;12.882;2022-09-09T05:46:11;8.40;;;3.30;;
70715;SDS011;59053;50.832;12.882;2022-09-09T05:48:40;9.05;;;3.80;;
70715;SDS011;59053;50.832;12.882;2022-09-09T05:51:08;9.00;;;3.40;;
70715;SDS011;59053;50.832;12.882;2022-09-09T05:53:35;7.07;;;3.30;;
70715;SDS011;59053;50.832;12.882;2022-09-09T05:56:02;10.33;;;3.83;;
70715;SDS011;59053;50.832;12.882;2022-09-09T05:58:31;8.70;;;3.80;;
70715;SDS011;59053;50.832;12.882;2022-09-09T06:01:00;7.47;;;3.20;;
70715;SDS011;59053;50.832;12.882;2022-09-09T06:03:36;7.95;;;3.42;;
70715;SDS011;59053;50.832;12.882;2022-09-09T06:06:04;6.67;;;2.90;;
70715;SDS011;59053;50.832;12.882;2022-09-09T06:08:31;7.00;;;3.08;;
70715;SDS011;59053;50.832;12.882;2022-09-09T06:11:03;7.70;;;3.30;;
70715;SDS011;59053;50.832;12.882;2022-09-09T06:13:30;6.75;;;3.10;;
70715;SDS011;59053;50.832;12.882;2022-09-09T06:15:55;14.03;;;2.80;;
70715;SDS011;59053;50.832;12.882;2022-09-09T06:18:21;6.60;;;3.00;;
70715;SDS011;59053;50.832;12.882;2022-09-09T06:20:56;8.60;;;2.80;;
70715;SDS011;59053;50.832;12.882;2022-09-09T06:23:24;6.05;;;2.80;;
70715;SDS011;59053;50.832;12.882;2022-09-09T06:25:50;8.18;;;3.13;;
70715;SDS011;59053;50.832;12.882;2022-09-09T06:28:17;4.28;;;1.90;;
70715;SDS011;59053;50.832;12.882;2022-09-09T06:30:44;5.90;;;2.80;;
70715;SDS011;59053;50.832;12.882;2022-09-09T06:33:14;4.23;;;2.23;;
70715;SDS011;59053;50.832;12.882;2022-09-09T06:35:39;9.85;;;2.38;;
70715;SDS011;59053;50.832;12.882;2022-09-09T06:38:08;4.97;;;1.80;;
70715;SDS011;59053;50.832;12.882;2022-09-09T06:40:33;5.43;;;1.80;;
70715;SDS011;59053;50.832;12.882;2022-09-09T06:42:59;7.15;;;2.10;;
70715;SDS011;59053;50.832;12.882;2022-09-09T06:45:37;4.45;;;1.60;;
70715;SDS011;59053;50.832;12.882;2022-09-09T06:48:03;6.57;;;1.70;;
70715;SDS011;59053;50.832;12.882;2022-09-09T06:50:28;4.15;;;1.48;;
70715;SDS011;59053;50.832;12.882;2022-09-09T06:52:54;3.70;;;1.23;;
70715;SDS011;59053;50.832;12.882;2022-09-09T06:55:24;4.53;;;1.80;;
70715;SDS011;59053;50.832;12.882;2022-09-09T06:57:53;4.35;;;1.40;;
70715;SDS011;59053;50.832;12.882;2022-09-09T07:00:21;4.90;;;1.53;;
70715;SDS011;59053;50.832;12.882;2022-09-09T07:02:47;4.65;;;1.55;;
70715;SDS011;59053;50.832;12.882;2022-09-09T07:05:13;3.07;;;1.57;;
70715;SDS011;59053;50.832;12.882;2022-09-09T07:14:01;3.72;;;1.60;;
70715;SDS011;59053;50.832;12.882;2022-09-09T07:16:27;3.67;;;1.35;;
70715;SDS011;59053;50.832;12.882;2022-09-09T07:18:56;5.00;;;1.50;;
70715;SDS011;59053;50.832;12.882;2022-09-09T07:21:27;5.97;;;1.48;;
70715;SDS011;59053;50.832;12.882;2022-09-09T07:23:53;4.75;;;1.48;;
70715;SDS011;59053;50.832;12.882;2022-09-09T07:26:20;6.80;;;1.92;;
70715;SDS011;59053;50.832;12.882;2022-09-09T07:28:51;5.63;;;1.75;;
70715;SDS011;59053;50.832;12.882;2022-09-09T07:31:18;4.30;;;1.60;;
70715;SDS011;59053;50.832;12.882;2022-09-09T07:33:45;4.43;;;1.50;;
70715;SDS011;59053;50.832;12.882;2022-09-09T07:36:30;2.78;;;1.50;;
70715;SDS011;59053;50.832;12.882;2022-09-09T07:39:05;10.40;;;1.80;;
70715;SDS011;59053;50.832;12.882;2022-09-09T07:41:34;2.90;;;1.45;;
70715;SDS011;59053;50.832;12.882;2022-09-09T07:44:07;5.00;;;1.60;;
70715;SDS011;59053;50.832;12.882;2022-09-09T07:46:37;4.28;;;1.65;;
70715;SDS011;59053;50.832;12.882;2022-09-09T07:49:05;6.38;;;1.83;;
70715;SDS011;59053;50.832;12.882;2022-09-09T07:51:37;5.03;;;1.40;;
70715;SDS011;59053;50.832;12.882;2022-09-09T07:54:06;5.57;;;1.65;;
70715;SDS011;59053;50.832;12.882;2022-09-09T07:56:33;6.25;;;1.60;;
70715;SDS011;59053;50.832;12.882;2022-09-09T07:58:58;5.83;;;1.73;;
70715;SDS011;59053;50.832;12.882;2022-09-09T08:01:29;4.53;;;1.70;;
70715;SDS011;59053;50.832;12.882;2022-09-09T08:03:58;9.05;;;2.40;;
70715;SDS011;59053;50.832;12.882;2022-09-09T08:06:25;7.90;;;2.20;;
70715;SDS011;59053;50.832;12.882;2022-09-09T08:08:52;5.40;;;2.00;;
70715;SDS011;59053;50.832;12.882;2022-09-09T08:11:19;5.63;;;1.92;;
70715;SDS011;59053;50.832;12.882;2022-09-09T08:13:44;6.37;;;2.10;;
70715;SDS011;59053;50.832;12.882;2022-09-09T08:16:11;5.07;;;2.00;;
70715;SDS011;59053;50.832;12.882;2022-09-09T08:18:39;7.07;;;2.00;;
70715;SDS011;59053;50.832;12.882;2022-09-09T08:21:06;5.50;;;1.88;;
70715;SDS011;59053;50.832;12.882;2022-09-09T08:23:33;6.63;;;1.80;;
70715;SDS011;59053;50.832;12.882;2022-09-09T08:26:04;5.00;;;1.77;;
70715;SDS011;59053;50.832;12.882;2022-09-09T08:28:30;4.75;;;2.10;;
70715;SDS011;59053;50.832;12.882;2022-09-09T08:30:56;5.97;;;1.80;;
70715;SDS011;59053;50.832;12.882;2022-09-09T08:33:30;5.20;;;2.00;;
70715;SDS011;59053;50.832;12.882;2022-09-09T08:35:55;5.40;;;1.80;;
70715;SDS011;59053;50.832;12.882;2022-09-09T08:38:22;4.72;;;1.60;;
70715;SDS011;59053;50.832;12.882;2022-09-09T08:40:47;6.97;;;1.73;;
70715;SDS011;59053;50.832;12.882;2022-09-09T08:43:15;3.97;;;1.60;;
70715;SDS011;59053;50.832;12.882;2022-09-09T08:45:50;6.00;;;1.67;;
70715;SDS011;59053;50.832;12.882;2022-09-09T08:48:38;5.93;;;1.50;;
70715;SDS011;59053;50.832;12.882;2022-09-09T08:51:09;3.22;;;1.45;;
70715;SDS011;59053;50.832;12.882;2022-09-09T08:53:42;3.78;;;1.65;;
70715;SDS011;59053;50.832;12.882;2022-09-09T08:56:11;4.83;;;1.50;;
70715;SDS011;59053;50.832;12.882;2022-09-09T08:58:47;3.88;;;1.55;;
70715;SDS011;59053;50.832;12.882;2022-09-09T09:07:31;2.70;;;1.45;;
70715;SDS011;59053;50.832;12.882;2022-09-09T09:10:15;2.20;;;1.40;;
70715;SDS011;59053;50.832;12.882;2022-09-09T09:12:56;5.72;;;1.65;;
70715;SDS011;59053;50.832;12.882;2022-09-09T09:15:23;6.63;;;1.70;;
70715;SDS011;59053;50.832;12.882;2022-09-09T09:17:53;6.38;;;1.60;;
70715;SDS011;59053;50.832;12.882;2022-09-09T09:20:21;3.00;;;1.45;;
70715;SDS011;59053;50.832;12.882;2022-09-09T09:22:55;3.70;;;1.47;;
70715;SDS011;59053;50.832;12.882;2022-09-09T09:25:26;6.65;;;1.70;;
70715;SDS011;59053;50.832;12.882;2022-09-09T09:30:53;4.35;;;1.63;;
70715;SDS011;59053;50.832;12.882;2022-09-09T09:33:31;6.47;;;2.00;;
70715;SDS011;59053;50.832;12.882;2022-09-09T09:36:16;3.37;;;1.70;;
70715;SDS011;59053;50.832;12.882;2022-09-09T09:38:55;5.30;;;1.90;;
70715;SDS011;59053;50.832;12.882;2022-09-09T09:41:30;4.82;;;1.85;;
70715;SDS011;59053;50.832;12.882;2022-09-09T09:43:56;4.15;;;1.60;;
70715;SDS011;59053;50.832;12.882;2022-09-09T09:46:23;3.50;;;1.75;;
70715;SDS011;59053;50.832;12.882;2022-09-09T09:49:11;4.23;;;1.70;;
70715;SDS011;59053;50.832;12.882;2022-09-09T09:51:39;3.30;;;1.65;;
70715;SDS011;59053;50.832;12.882;2022-09-09T09:56:55;3.50;;;1.42;;
70715;SDS011;59053;50.832;12.882;2022-09-09T09:59:34;5.03;;;1.70;;
70715;SDS011;59053;50.832;12.882;2022-09-09T10:05:01;4.88;;;1.80;;
70715;SDS011;59053;50.832;12.882;2022-09-09T10:07:27;4.40;;;1.70;;
70715;SDS011;59053;50.832;12.882;2022-09-09T10:09:54;3.63;;;1.50;;
70715;SDS011;59053;50.832;12.882;2022-09-09T10:12:29;4.22;;;1.60;;
70715;SDS011;59053;50.832;12.882;2022-09-09T10:15:02;3.80;;;1.13;;
70715;SDS011;59053;50.832;12.882;2022-09-09T10:17:50;3.22;;;0.90;;
70715;SDS011;59053;50.832;12.882;2022-09-09T10:23:25;1.30;;;0.70;;
70715;SDS011;59053;50.832;12.882;2022-09-09T10:26:22;2.45;;;0.95;;
70715;SDS011;59053;50.832;12.882;2022-09-09T10:34:41;3.90;;;0.90;;
70715;SDS011;59053;50.832;12.882;2022-09-09T10:40:03;3.67;;;0.90;;
70715;SDS011;59053;50.832;12.882;2022-09-09T10:42:44;2.50;;;0.85;;
70715;SDS011;59053;50.832;12.882;2022-09-09T10:45:21;2.40;;;1.00;;
70715;SDS011;59053;50.832;12.882;2022-09-09T10:50:42;1.77;;;0.90;;
70715;SDS011;59053;50.832;12.882;2022-09-09T10:53:14;3.55;;;1.30;;
70715;SDS011;59053;50.832;12.882;2022-09-09T10:55:45;2.78;;;1.10;;
70715;SDS011;59053;50.832;12.882;2022-09-09T10:58:18;2.65;;;0.90;;
70715;SDS011;59053;50.832;12.882;2022-09-09T11:00:47;3.30;;;1.20;;
70715;SDS011;59053;50.832;12.882;2022-09-09T11:03:26;1.90;;;0.90;;
70715;SDS011;59053;50.832;12.882;2022-09-09T11:06:00;4.05;;;0.90;;
70715;SDS011;59053;50.832;12.882;2022-09-09T11:08:29;4.00;;;0.93;;
70715;SDS011;59053;50.832;12.882;2022-09-09T11:11:02;1.85;;;1.00;;
70715;SDS011;59053;50.832;12.882;2022-09-09T11:13:34;4.23;;;1.20;;
70715;SDS011;59053;50.832;12.882;2022-09-09T11:16:05;2.17;;;0.80;;
70715;SDS011;59053;50.832;12.882;2022-09-09T11:18:37;2.50;;;0.80;;
70715;SDS011;59053;50.832;12.882;2022-09-09T11:21:12;2.53;;;1.08;;
70715;SDS011;59053;50.832;12.882;2022-09-09T11:23:45;2.75;;;1.00;;
70715;SDS011;59053;50.832;12.882;2022-09-09T11:26:16;2.53;;;0.97;;
70715;SDS011;59053;50.832;12.882;2022-09-09T11:28:51;4.10;;;1.00;;
70715;SDS011;59053;50.832;12.882;2022-09-09T11:34:13;3.65;;;0.93;;
70715;SDS011;59053;50.832;12.882;2022-09-09T11:42:41;2.80;;;1.10;;
70715;SDS011;59053;50.832;12.882;2022-09-09T11:45:20;3.05;;;1.10;;
70715;SDS011;59053;50.832;12.882;2022-09-09T11:47:52;4.20;;;1.30;;
70715;SDS011;59053;50.832;12.882;2022-09-09T11:50:27;3.20;;;1.10;;
70715;SDS011;59053;50.832;12.882;2022-09-09T11:55:38;1.83;;;1.00;;
70715;SDS011;59053;50.832;12.882;2022-09-09T12:00:37;3.30;;;1.20;;
70715;SDS011;59053;50.832;12.882;2022-09-09T12:03:05;3.17;;;1.10;;
70715;SDS011;59053;50.832;12.882;2022-09-09T12:05:38;5.00;;;1.27;;
70715;SDS011;59053;50.832;12.882;2022-09-09T12:08:06;4.57;;;1.30;;
70715;SDS011;59053;50.832;12.882;2022-09-09T12:10:35;3.10;;;1.23;;
70715;SDS011;59053;50.832;12.882;2022-09-09T12:17:21;3.80;;;1.27;;
70715;SDS011;59053;50.832;12.882;2022-09-09T12:19:48;4.40;;;1.35;;
70715;SDS011;59053;50.832;12.882;2022-09-09T12:22:37;3.90;;;1.10;;
70715;SDS011;59053;50.832;12.882;2022-09-09T12:27:43;2.33;;;1.00;;
70715;SDS011;59053;50.832;12.882;2022-09-09T12:30:16;2.40;;;1.00;;
70715;SDS011;59053;50.832;12.882;2022-09-09T12:36:29;4.07;;;0.98;;
70715;SDS011;59053;50.832;12.882;2022-09-09T12:38:55;1.65;;;0.60;;
70715;SDS011;59053;50.832;12.882;2022-09-09T12:41:26;2.33;;;0.60;;
70715;SDS011;59053;50.832;12.882;2022-09-09T12:44:13;2.67;;;0.70;;
70715;SDS011;59053;50.832;12.882;2022-09-09T12:46:39;2.17;;;0.95;;
70715;SDS011;59053;50.832;12.882;2022-09-09T12:49:25;1.67;;;0.73;;
70715;SDS011;59053;50.832;12.882;2022-09-09T12:51:51;2.28;;;0.77;;
70715;SDS011;59053;50.832;12.882;2022-09-09T12:54:52;2.35;;;0.80;;
70715;SDS011;59053;50.832;12.882;2022-09-09T12:57:56;1.43;;;0.63;;
70715;SDS011;59053;50.832;12.882;2022-09-09T13:00:48;1.77;;;0.68;;
70715;SDS011;59053;50.832;12.882;2022-09-09T13:03:41;2.45;;;0.80;;
70715;SDS011;59053;50.832;12.882;2022-09-09T13:09:38;3.05;;;0.80;;
70715;SDS011;59053;50.832;12.882;2022-09-09T13:12:23;4.30;;;0.80;;
70715;SDS011;59053;50.832;12.882;2022-09-09T13:15:22;3.85;;;0.90;;
70715;SDS011;59053;50.832;12.882;2022-09-09T13:18:01;1.63;;;0.77;;
70715;SDS011;59053;50.832;12.882;2022-09-09T13:21:10;2.17;;;0.90;;
70715;SDS011;59053;50.832;12.882;2022-09-09T13:23:41;3.28;;;0.70;;
70715;SDS011;59053;50.832;12.882;2022-09-09T13:29:50;1.73;;;0.80;;
70715;SDS011;59053;50.832;12.882;2022-09-09T13:38:28;3.03;;;0.88;;
70715;SDS011;59053;50.832;12.882;2022-09-09T13:40:58;2.10;;;0.90;;
70715;SDS011;59053;50.832;12.882;2022-09-09T13:43:30;2.45;;;0.70;;
70715;SDS011;59053;50.832;12.882;2022-09-09T13:46:00;4.63;;;1.00;;
70715;SDS011;59053;50.832;12.882;2022-09-09T13:51:37;2.33;;;1.00;;
70715;SDS011;59053;50.832;12.882;2022-09-09T13:54:13;3.22;;;0.90;;
70715;SDS011;59053;50.832;12.882;2022-09-09T13:56:40;3.35;;;0.93;;
70715;SDS011;59053;50.832;12.882;2022-09-09T13:59:15;3.65;;;1.30;;
70715;SDS011;59053;50.832;12.882;2022-09-09T14:05:06;2.97;;;0.98;;
70715;SDS011;59053;50.832;12.882;2022-09-09T14:07:34;2.42;;;0.90;;
70715;SDS011;59053;50.832;12.882;2022-09-09T14:09:59;1.20;;;0.90;;
70715;SDS011;59053;50.832;12.882;2022-09-09T14:12:25;2.75;;;1.00;;
70715;SDS011;59053;50.832;12.882;2022-09-09T14:14:53;3.75;;;1.40;;
70715;SDS011;59053;50.832;12.882;2022-09-09T14:17:18;2.50;;;1.20;;
70715;SDS011;59053;50.832;12.882;2022-09-09T14:19:44;1.67;;;1.00;;
70715;SDS011;59053;50.832;12.882;2022-09-09T14:24:52;2.25;;;1.20;;
70715;SDS011;59053;50.832;12.882;2022-09-09T14:27:18;2.40;;;1.33;;
70715;SDS011;59053;50.832;12.882;2022-09-09T14:29:44;3.40;;;1.30;;
70715;SDS011;59053;50.832;12.882;2022-09-09T14:32:09;2.20;;;1.30;;
70715;SDS011;59053;50.832;12.882;2022-09-09T14:34:35;2.83;;;1.17;;
70715;SDS011;59053;50.832;12.882;2022-09-09T14:37:01;2.10;;;0.90;;
70715;SDS011;59053;50.832;12.882;2022-09-09T14:39:26;3.23;;;0.90;;
70715;SDS011;59053;50.832;12.882;2022-09-09T14:41:52;2.15;;;0.90;;
70715;SDS011;59053;50.832;12.882;2022-09-09T14:44:17;2.93;;;0.80;;
70715;SDS011;59053;50.832;12.882;2022-09-09T14:46:43;1.70;;;1.00;;
70715;SDS011;59053;50.832;12.882;2022-09-09T14:49:08;1.08;;;0.70;;
70715;SDS011;59053;50.832;12.882;2022-09-09T14:51:35;2.70;;;0.73;;
70715;SDS011;59053;50.832;12.882;2022-09-09T14:54:01;4.68;;;1.00;;
70715;SDS011;59053;50.832;12.882;2022-09-09T14:56:28;1.95;;;0.85;;
70715;SDS011;59053;50.832;12.882;2022-09-09T14:58:55;1.63;;;0.77;;
70715;SDS011;59053;50.832;12.882;2022-09-09T15:01:21;3.47;;;0.90;;
70715;SDS011;59053;50.832;12.882;2022-09-09T15:03:51;1.75;;;0.88;;
70715;SDS011;59053;50.832;12.882;2022-09-09T15:06:18;1.98;;;0.80;;
70715;SDS011;59053;50.832;12.882;2022-09-09T15:08:44;1.60;;;0.80;;
70715;SDS011;59053;50.832;12.882;2022-09-09T15:11:10;1.87;;;0.80;;
70715;SDS011;59053;50.832;12.882;2022-09-09T15:13:37;1.90;;;0.80;;
70715;SDS011;59053;50.832;12.882;2022-09-09T15:16:08;1.23;;;0.90;;
70715;SDS011;59053;50.832;12.882;2022-09-09T15:18:35;1.35;;;0.70;;
70715;SDS011;59053;50.832;12.882;2022-09-09T15:21:04;2.67;;;1.00;;
70715;SDS011;59053;50.832;12.882;2022-09-09T15:23:32;1.25;;;0.70;;
70715;SDS011;59053;50.832;12.882;2022-09-09T15:25:58;3.90;;;0.75;;
70715;SDS011;59053;50.832;12.882;2022-09-09T15:28:23;2.47;;;0.83;;
70715;SDS011;59053;50.832;12.882;2022-09-09T15:30:49;1.87;;;0.80;;
70715;SDS011;59053;50.832;12.882;2022-09-09T15:33:19;3.65;;;0.63;;
70715;SDS011;59053;50.832;12.882;2022-09-09T15:35:45;3.27;;;0.80;;
70715;SDS011;59053;50.832;12.882;2022-09-09T15:38:10;2.42;;;0.93;;
70715;SDS011;59053;50.832;12.882;2022-09-09T15:40:38;1.93;;;0.90;;
70715;SDS011;59053;50.832;12.882;2022-09-09T15:43:04;1.70;;;1.10;;
70715;SDS011;59053;50.832;12.882;2022-09-09T15:45:34;1.92;;;1.00;;
70715;SDS011;59053;50.832;12.882;2022-09-09T15:48:00;1.58;;;0.80;;
70715;SDS011;59053;50.832;12.882;2022-09-09T15:50:26;2.83;;;1.00;;
70715;SDS011;59053;50.832;12.882;2022-09-09T15:52:52;2.17;;;0.90;;
70715;SDS011;59053;50.832;12.882;2022-09-09T15:55:18;2.63;;;0.90;;
70715;SDS011;59053;50.832;12.882;2022-09-09T15:57:52;4.50;;;1.05;;
70715;SDS011;59053;50.832;12.882;2022-09-09T16:00:18;2.15;;;1.10;;
70715;SDS011;59053;50.832;12.882;2022-09-09T16:02:44;1.87;;;1.00;;
70715;SDS011;59053;50.832;12.882;2022-09-09T16:05:18;2.17;;;1.17;;
70715;SDS011;59053;50.832;12.882;2022-09-09T16:07:44;2.08;;;1.02;;
70715;SDS011;59053;50.832;12.882;2022-09-09T16:10:10;4.03;;;1.10;;
70715;SDS011;59053;50.832;12.882;2022-09-09T16:12:36;2.35;;;1.10;;
70715;SDS011;59053;50.832;12.882;2022-09-09T16:15:01;2.07;;;1.10;;
70715;SDS011;59053;50.832;12.882;2022-09-09T16:17:27;2.25;;;1.10;;
70715;SDS011;59053;50.832;12.882;2022-09-09T16:20:04;2.10;;;1.10;;
70715;SDS011;59053;50.832;12.882;2022-09-09T16:22:32;3.28;;;1.30;;
70715;SDS011;59053;50.832;12.882;2022-09-09T16:24:57;2.93;;;1.20;;
70715;SDS011;59053;50.832;12.882;2022-09-09T16:27:23;3.10;;;1.00;;
70715;SDS011;59053;50.832;12.882;2022-09-09T16:29:48;1.43;;;1.00;;
70715;SDS011;59053;50.832;12.882;2022-09-09T16:32:14;1.30;;;0.87;;
70715;SDS011;59053;50.832;12.882;2022-09-09T16:34:39;2.53;;;1.07;;
70715;SDS011;59053;50.832;12.882;2022-09-09T16:37:05;4.03;;;1.30;;
70715;SDS011;59053;50.832;12.882;2022-09-09T16:42:17;1.70;;;0.90;;
70715;SDS011;59053;50.832;12.882;2022-09-09T16:44:42;2.53;;;1.10;;
70715;SDS011;59053;50.832;12.882;2022-09-09T16:47:10;2.05;;;1.08;;
70715;SDS011;59053;50.832;12.882;2022-09-09T16:49:35;1.73;;;1.07;;
70715;SDS011;59053;50.832;12.882;2022-09-09T16:52:01;1.73;;;1.00;;
70715;SDS011;59053;50.832;12.882;2022-09-09T16:54:26;3.15;;;1.00;;
70715;SDS011;59053;50.832;12.882;2022-09-09T16:56:52;2.23;;;1.10;;
70715;SDS011;59053;50.832;12.882;2022-09-09T16:59:18;3.73;;;1.00;;
70715;SDS011;59053;50.832;12.882;2022-09-09T17:01:46;3.33;;;1.10;;
70715;SDS011;59053;50.832;12.882;2022-09-09T17:04:13;2.22;;;1.20;;
70715;SDS011;59053;50.832;12.882;2022-09-09T17:06:48;3.55;;;1.10;;
70715;SDS011;59053;50.832;12.882;2022-09-09T17:09:15;3.47;;;1.00;;
70715;SDS011;59053;50.832;12.882;2022-09-09T17:11:41;1.80;;;1.10;;
70715;SDS011;59053;50.832;12.882;2022-09-09T17:14:07;2.05;;;1.20;;
70715;SDS011;59053;50.832;12.882;2022-09-09T17:16:34;2.50;;;1.30;;
70715;SDS011;59053;50.832;12.882;2022-09-09T17:19:00;3.15;;;1.10;;
70715;SDS011;59053;50.832;12.882;2022-09-09T17:21:27;2.53;;;1.00;;
70715;SDS011;59053;50.832;12.882;2022-09-09T17:23:53;2.13;;;0.98;;
70715;SDS011;59053;50.832;12.882;2022-09-09T17:26:22;2.17;;;1.10;;
70715;SDS011;59053;50.832;12.882;2022-09-09T17:28:51;1.25;;;0.90;;
70715;SDS011;59053;50.832;12.882;2022-09-09T17:31:17;2.17;;;1.08;;
70715;SDS011;59053;50.832;12.882;2022-09-09T17:33:43;1.83;;;0.93;;
70715;SDS011;59053;50.832;12.882;2022-09-09T17:36:32;1.77;;;1.00;;
70715;SDS011;59053;50.832;12.882;2022-09-09T17:38:58;2.20;;;1.00;;
70715;SDS011;59053;50.832;12.882;2022-09-09T17:41:29;3.73;;;0.90;;
70715;SDS011;59053;50.832;12.882;2022-09-09T17:47:10;2.90;;;1.10;;
70715;SDS011;59053;50.832;12.882;2022-09-09T17:49:35;1.97;;;1.00;;